Nearby METAR Reports


KSYR - Syracuse, New York, USA
Distance from station: SE 5mi, 8km
Updated: Tue, 23-Apr-2019 7:54pm EDT
Rain, Overcast
Rain, Overcast
 Wind from W
Wind: W 5 mph , 7 km/h
Temperature: 61°F , 16°C
Dew Point: 54°F , 12°C
Humidity: 77%
Barometer: 29.70 inHg , 1005.8 hPa
Summary: Rain
Clouds: Overcast
Visibility: 4 miles , 6 km
Cloud details: Overcast 4400 ft
2019/04/23 23:54 KSYR 232354Z 27004KT 4SM RA OVC044 16/12 A2970 RMK AO2 SLP055 P0009 60010 T01560122 10256 20156 58001
KFZY - Fulton, New York, USA
Distance from station: NW 17mi, 27km
Updated: Tue, 23-Apr-2019 7:54pm EDT
Light rain, Overcast
Light rain, Overcast
 Wind from SSW
Wind: SSW 10 mph , 17 km/h, Gust: 17 mph , 28 km/h
Temperature: 59°F , 15°C
Dew Point: 54°F , 12°C
Humidity: 82%
Barometer: 29.69 inHg , 1005.4 hPa
Summary: Light rain
Clouds: Overcast
Visibility: 10 miles , 16 km
Cloud details: Mostly cloudy 4100 ft
Overcast 5000 ft
2019/04/23 23:54 KFZY 232354Z AUTO 20009G15KT 10SM -RA BKN041 OVC050 15/12 A2969 RMK AO2 SLP053 P0009 60014 T01500122 10239 20150 56005
 
KRME - Rome/Griffiss Af, New York, USA
Distance from station: E 39mi, 62km
Updated: Tue, 23-Apr-2019 7:53pm EDT
Rain, Overcast
Rain, Overcast
 Wind from E
Wind: E 7 mph , 11 km/h
Temperature: 59°F , 15°C
Dew Point: 55°F , 13°C
Humidity: 88%
Barometer: 29.72 inHg , 1006.4 hPa
Summary: Rain
Clouds: Overcast
Visibility: 8 miles , 13 km
Cloud details: Overcast 5000 ft
2019/04/23 23:53 KRME 232353Z 09006KT 8SM RA OVC050 15/13 A2972 RMK AO2 SLP064 P0006 60013 T01500128 10244 20150 58003
KITH - Ithaca/Tompkins, New York, USA
Distance from station: SSW 51mi, 82km
Updated: Tue, 23-Apr-2019 7:56pm EDT
Light rain, Overcast
Light rain, Overcast
 Wind from SSW
Wind: SSW 8 mph , 13 km/h
Temperature: 59°F , 15°C
Dew Point: 54°F , 12°C
Humidity: 82%
Barometer: 29.74 inHg , 1007.1 hPa
Summary: Light rain
Clouds: Overcast
Visibility: 10 miles , 16 km
Cloud details: Overcast 4600 ft
2019/04/23 23:56 KITH 232356Z 21007KT 10SM -RA OVC046 15/12 A2974 RMK AO2 SLP072 P0001 60001 T01500122 10228 20144 55006
 
KART - Watertown, New York, USA
Distance from station: N 56mi, 91km
Updated: Tue, 23-Apr-2019 8:14pm EDT
Light rain, Overcast
Light rain, Overcast
 Wind from SSW
Wind: SSW 12 mph , 19 km/h, Gust: 23 mph , 37 km/h
Temperature: 57°F , 14°C
Dew Point: 55°F , 13°C
Humidity: 94%
Barometer: 29.64 inHg , 1003.7 hPa
Summary: Light rain
Clouds: Overcast
Visibility: 10 miles , 16 km
Cloud details: Mostly cloudy 1500 ft
Overcast 2100 ft
2019/04/24 00:14 KART 240014Z AUTO 21010G20KT 10SM -RA BKN015 OVC021 14/13 A2964 RMK AO2 P0003 T01440133 $
KPEO - Penn Yan, New York, USA
Distance from station: SW 58mi, 93km
Updated: Tue, 23-Apr-2019 7:53pm EDT
Overcast
Overcast
 Wind from SSW
Wind: SSW 13 mph , 20 km/h
Temperature: 63°F , 17°C
Dew Point: 52°F , 11°C
Humidity: 68%
Barometer: 29.72 inHg , 1006.4 hPa
Clouds: Overcast
Visibility: 10 miles , 16 km
Cloud details: Partly cloudy 4200 ft
Mostly cloudy 5500 ft
Overcast 7500 ft
2019/04/23 23:53 KPEO 232353Z AUTO 21011KT 10SM SCT042 BKN055 OVC075 17/11 A2972 RMK AO2 SLP063 60002 T01720111 10228 20172 55005
 
KGTB - Fort Drum/Wheele, New York, USA
Distance from station: NNE 64mi, 102km
Updated: Tue, 23-Apr-2019 7:56pm EDT
Light rain, Overcast
Light rain, Overcast
 Wind from S
Wind: S 14 mph , 22 km/h
Temperature: 59°F , 15°C
Dew Point: 55°F , 13°C
Humidity: 88%
Barometer: 29.64 inHg , 1003.7 hPa
Summary: Light rain
Clouds: Overcast
Visibility: 10 miles , 16 km
Cloud details: Mostly cloudy 3600 ft
Overcast 4300 ft
2019/04/23 23:56 KGTB 232356Z AUTO 18012KT 10SM -RA BKN036 OVC043 15/13 A2964 RMK AO2 SLPNO P0004 60010 T01480127 10237 20148 58009 $
CWQP - Point Petre (mar, Ontario, Canada
Distance from station: NW 67mi, 107km
Updated: Tue, 23-Apr-2019 8:00pm EDT

 Wind from SW
Wind: SW 25 mph , 41 km/h
Temperature: 45°F , 7°C
Wind Chill: 36°F , 2°C
Dew Point: 45°F , 7°C
Humidity: 100%
2019/04/24 00:00 CWQP 240000Z AUTO 23022KT 07/07 RMK AO1 3PAST HR SOG 02 5017 PK WND 24028/2320 SLP047 P0001 T00710066 50051
 
KBGM - Binghamton, New York, USA
Distance from station: S 67mi, 107km
Updated: Tue, 23-Apr-2019 7:53pm EDT
Light rain, Overcast
Light rain, Overcast
 Wind from SSW
Wind: SSW 7 mph , 11 km/h
Temperature: 57°F , 14°C
Dew Point: 52°F , 11°C
Humidity: 82%
Barometer: 29.76 inHg , 1007.8 hPa
Summary: Light rain
Clouds: Overcast
Visibility: 7 miles , 11 km
Cloud details: Mostly cloudy 5000 ft
Overcast 6000 ft
2019/04/23 23:53 KBGM 232353Z 21006KT 7SM -RA BKN050 OVC060 14/11 A2976 RMK AO2 SLP079 P0002 60002 T01390106 10222 20139 56023
CYGK - Kingston Arpt (m, Ontario, Canada
Distance from station: NNW 75mi, 121km
Updated: Tue, 23-Apr-2019 8:07pm EDT
Mist, Mostly cloudy
Mist, Mostly cloudy
 Wind from S
Wind: S 14 mph , 22 km/h
Temperature: 48°F , 9°C
Wind Chill: 42°F , 6°C
Dew Point: 48°F , 9°C
Humidity: 100%
Barometer: 29.62 inHg , 1003 hPa
Summary: Mist
Clouds: Mostly cloudy
Visibility: 5 miles , 8 km
Cloud details: Partly cloudy 200 ft
Partly cloudy 1000 ft
Mostly cloudy 2500 ft
2019/04/24 00:07 CYGK 240007Z 19012KT 5SM BR SCT002 SCT010 BKN025 09/09 A2962 RMK SF3CU1SC3 SLP033